Time;durP1;ratioP1;P1;durP2;ratioP2;P2;SDS_P1;SDS_P2;PMS_P1;PMS_P2;Temp;Humidity;BMP_temperature;BMP_pressure;BME280_temperature;BME280_humidity;BME280_pressure;Samples;Min_cycle;Max_cycle;Signal;HPM_P1;HPM_P2
2021/12/05 00:19:18;;;;;;;5.05;3.20;;;;;;;;;;5015846;28;20183;-49
2021/12/05 00:24:32;;;;;;;3.08;2.45;;;;;;;;;;5015392;28;20223;-51
2021/12/05 00:27:04;;;;;;;6.30;3.47;;;;;;;;;;5015215;28;20164;-50
2021/12/05 00:29:38;;;;;;;8.30;3.53;;;;;;;;;;5014980;28;20172;-50
2021/12/05 00:32:19;;;;;;;8.98;3.45;;;;;;;;;;5014590;28;20207;-50
2021/12/05 00:43:14;;;;;;;9.05;3.45;;;;;;;;;;5014584;28;20232;-50
2021/12/05 00:45:50;;;;;;;10.05;3.35;;;;;;;;;;5014269;28;20290;-49
2021/12/05 01:16:41;;;;;;;10.48;3.38;;;;;;;;;;5013773;28;20218;-50
2021/12/05 01:19:08;;;;;;;16.80;3.85;;;;;;;;;;5014192;28;20230;-49
2021/12/05 01:21:36;;;;;;;9.57;3.70;;;;;;;;;;5013967;28;20192;-51
2021/12/05 01:24:19;;;;;;;8.60;3.72;;;;;;;;;;5014017;28;20165;-50
2021/12/05 01:29:31;;;;;;;5.28;2.97;;;;;;;;;;5014023;28;20179;-50
2021/12/05 01:40:09;;;;;;;10.18;4.05;;;;;;;;;;5014001;28;20237;-49
2021/12/05 01:45:41;;;;;;;8.27;3.95;;;;;;;;;;5013512;28;20184;-51
2021/12/05 01:48:39;;;;;;;16.70;4.03;;;;;;;;;;5013627;28;20203;-50
2021/12/05 02:09:48;;;;;;;10.07;3.70;;;;;;;;;;5013408;28;20266;-51
2021/12/05 02:31:54;;;;;;;9.63;3.08;;;;;;;;;;5017065;28;20297;-51
2021/12/05 02:42:24;;;;;;;10.43;2.97;;;;;;;;;;5018759;28;20237;-51
2021/12/05 02:44:51;;;;;;;9.13;2.72;;;;;;;;;;5018280;28;20271;-49
2021/12/05 02:47:19;;;;;;;10.52;3.22;;;;;;;;;;5018535;28;20169;-50
2021/12/05 02:49:46;;;;;;;2.47;2.28;;;;;;;;;;5018332;28;20199;-49
2021/12/05 02:52:19;;;;;;;9.73;3.45;;;;;;;;;;5018127;28;20663;-51
2021/12/05 02:54:49;;;;;;;11.40;4.10;;;;;;;;;;5018950;28;20621;-51
2021/12/05 02:57:18;;;;;;;18.40;3.70;;;;;;;;;;5019048;28;20188;-51
2021/12/05 02:59:50;;;;;;;6.30;3.55;;;;;;;;;;5018278;28;20631;-50
2021/12/05 03:02:18;;;;;;;4.13;2.78;;;;;;;;;;5018131;28;20199;-50
2021/12/05 03:04:46;;;;;;;14.02;2.95;;;;;;;;;;5018514;28;20164;-49
2021/12/05 03:07:13;;;;;;;6.13;3.35;;;;;;;;;;5018079;28;20165;-51
2021/12/05 03:09:40;;;;;;;6.22;2.78;;;;;;;;;;5018408;28;20176;-51
2021/12/05 03:12:09;;;;;;;6.65;2.60;;;;;;;;;;5018334;28;20266;-50
2021/12/05 03:14:35;;;;;;;9.07;3.28;;;;;;;;;;5018550;28;20161;-50
2021/12/05 03:17:01;;;;;;;5.80;2.70;;;;;;;;;;5017576;28;20195;-50
2021/12/05 03:19:27;;;;;;;7.47;2.83;;;;;;;;;;5017263;28;20165;-50
2021/12/05 03:21:53;;;;;;;10.93;2.70;;;;;;;;;;5017829;28;20434;-51
2021/12/05 03:24:21;;;;;;;13.57;3.10;;;;;;;;;;5018074;28;20160;-50
2021/12/05 03:26:48;;;;;;;16.95;3.05;;;;;;;;;;5017549;28;20169;-52
2021/12/05 03:29:15;;;;;;;7.43;3.20;;;;;;;;;;5017468;28;20173;-50
2021/12/05 03:31:41;;;;;;;4.50;3.50;;;;;;;;;;5016858;28;20257;-50
2021/12/05 03:34:08;;;;;;;8.70;3.30;;;;;;;;;;5017639;28;20169;-50
2021/12/05 03:36:35;;;;;;;11.75;3.15;;;;;;;;;;5018183;28;20181;-49
2021/12/05 03:39:03;;;;;;;9.95;3.75;;;;;;;;;;5017706;28;20618;-50
2021/12/05 03:41:29;;;;;;;9.07;2.60;;;;;;;;;;5019523;28;20227;-50
2021/12/05 03:43:56;;;;;;;4.55;2.97;;;;;;;;;;5021613;28;20188;-51
2021/12/05 03:46:23;;;;;;;7.90;2.97;;;;;;;;;;5004008;28;20248;-53
2021/12/05 03:48:52;;;;;;;8.38;2.85;;;;;;;;;;5022086;28;20175;-50
2021/12/05 03:51:20;;;;;;;5.38;3.05;;;;;;;;;;5021149;28;20660;-53
2021/12/05 03:53:46;;;;;;;6.65;2.70;;;;;;;;;;5022078;28;20211;-50
2021/12/05 03:56:13;;;;;;;9.38;3.50;;;;;;;;;;5021998;28;20614;-50
2021/12/05 03:58:40;;;;;;;5.50;2.30;;;;;;;;;;5021551;28;20196;-51
2021/12/05 04:01:07;;;;;;;5.43;3.28;;;;;;;;;;5020426;28;20199;-49
2021/12/05 04:03:34;;;;;;;7.20;3.13;;;;;;;;;;5021628;28;20200;-50
2021/12/05 04:06:01;;;;;;;3.15;2.85;;;;;;;;;;5020748;28;20227;-49
2021/12/05 04:08:28;;;;;;;15.93;3.90;;;;;;;;;;5021537;28;20169;-50
2021/12/05 04:10:56;;;;;;;4.22;2.50;;;;;;;;;;5020765;28;20232;-51
2021/12/05 04:13:22;;;;;;;9.25;2.50;;;;;;;;;;5020928;28;20514;-51
2021/12/05 04:15:49;;;;;;;11.52;3.20;;;;;;;;;;5020673;28;20230;-50
2021/12/05 04:18:17;;;;;;;9.07;2.95;;;;;;;;;;5020714;28;20406;-52
2021/12/05 04:20:43;;;;;;;6.43;2.35;;;;;;;;;;5003052;28;20196;-50
2021/12/05 04:23:09;;;;;;;7.90;2.30;;;;;;;;;;5020568;28;20230;-49
2021/12/05 04:25:37;;;;;;;7.80;3.50;;;;;;;;;;5020070;28;20444;-50
2021/12/05 04:28:03;;;;;;;3.05;2.30;;;;;;;;;;5020304;28;20502;-50
2021/12/05 04:30:29;;;;;;;7.40;2.35;;;;;;;;;;5020128;28;20196;-50
2021/12/05 04:32:57;;;;;;;3.55;2.15;;;;;;;;;;5021406;28;20187;-49
2021/12/05 04:35:23;;;;;;;4.13;1.98;;;;;;;;;;5020417;28;20169;-50
2021/12/05 04:37:49;;;;;;;6.95;2.60;;;;;;;;;;5020418;28;20164;-51
2021/12/05 04:40:15;;;;;;;8.85;2.42;;;;;;;;;;5020262;28;20160;-52
2021/12/05 04:42:41;;;;;;;3.83;2.60;;;;;;;;;;5020244;28;20612;-50
2021/12/05 04:45:09;;;;;;;9.10;2.92;;;;;;;;;;5020397;28;20462;-50
2021/12/05 04:47:35;;;;;;;9.43;2.60;;;;;;;;;;5020360;28;20169;-51
2021/12/05 04:50:01;;;;;;;15.07;2.90;;;;;;;;;;5020087;28;20533;-51
2021/12/05 04:52:27;;;;;;;4.77;2.33;;;;;;;;;;5018836;28;20462;-50
2021/12/05 04:54:53;;;;;;;6.63;2.70;;;;;;;;;;5020644;28;20395;-51
2021/12/05 04:57:19;;;;;;;8.70;2.35;;;;;;;;;;5020592;28;20400;-51
2021/12/05 04:59:49;;;;;;;6.10;2.70;;;;;;;;;;5020063;28;20214;-50
2021/12/05 05:02:16;;;;;;;6.85;2.55;;;;;;;;;;5019668;28;20191;-49
2021/12/05 05:04:45;;;;;;;10.10;2.50;;;;;;;;;;5020153;28;20179;-50
2021/12/05 05:07:15;;;;;;;4.15;1.90;;;;;;;;;;5019779;28;20177;-50
2021/12/05 05:09:41;;;;;;;9.30;2.85;;;;;;;;;;5020063;28;20228;-51
2021/12/05 05:12:08;;;;;;;4.00;1.77;;;;;;;;;;5019321;28;20236;-52
2021/12/05 05:14:34;;;;;;;2.58;2.20;;;;;;;;;;5019618;28;20772;-51
2021/12/05 05:17:00;;;;;;;11.68;2.28;;;;;;;;;;5019352;28;20175;-50
2021/12/05 05:19:32;;;;;;;7.30;2.35;;;;;;;;;;5019862;28;20530;-52
2021/12/05 05:25:16;;;;;;;4.45;2.45;;;;;;;;;;5019429;28;20535;-51
2021/12/05 05:46:26;;;;;;;7.25;2.55;;;;;;;;;;5019520;28;20195;-51
2021/12/05 05:49:11;;;;;;;3.53;1.80;;;;;;;;;;5018741;28;20172;-49
2021/12/05 05:51:37;;;;;;;3.58;2.60;;;;;;;;;;5019061;28;20196;-50
2021/12/05 05:54:03;;;;;;;6.03;2.10;;;;;;;;;;5019353;28;20707;-49
2021/12/05 05:56:31;;;;;;;14.43;1.98;;;;;;;;;;5019163;28;20418;-50
2021/12/05 05:59:15;;;;;;;6.40;2.40;;;;;;;;;;5018873;28;20160;-49
2021/12/05 06:04:17;;;;;;;5.72;2.22;;;;;;;;;;5018307;28;20178;-51
2021/12/05 06:06:43;;;;;;;6.47;2.20;;;;;;;;;;5018284;28;20203;-51
2021/12/05 06:09:09;;;;;;;2.47;1.98;;;;;;;;;;5018878;28;20169;-50
2021/12/05 06:11:35;;;;;;;5.30;2.00;;;;;;;;;;5018478;28;20196;-52
2021/12/05 06:14:02;;;;;;;9.52;2.65;;;;;;;;;;5018403;28;20732;-51
2021/12/05 06:16:28;;;;;;;2.33;1.75;;;;;;;;;;5017917;28;20164;-49
2021/12/05 06:18:54;;;;;;;4.25;2.30;;;;;;;;;;5019138;28;20165;-49
2021/12/05 06:21:20;;;;;;;6.47;2.23;;;;;;;;;;5017176;28;20279;-49
2021/12/05 06:23:46;;;;;;;3.10;2.10;;;;;;;;;;5018721;28;20458;-49
2021/12/05 06:26:19;;;;;;;10.85;2.63;;;;;;;;;;5018238;28;20407;-49
2021/12/05 06:28:51;;;;;;;3.00;1.70;;;;;;;;;;5018422;28;20176;-50
2021/12/05 06:31:27;;;;;;;6.65;2.10;;;;;;;;;;5018624;28;20730;-51
2021/12/05 06:47:12;;;;;;;3.60;1.58;;;;;;;;;;5017664;28;20183;-49
2021/12/05 06:49:38;;;;;;;3.85;1.83;;;;;;;;;;5017328;28;20163;-49
2021/12/05 06:52:05;;;;;;;8.07;2.60;;;;;;;;;;5017466;28;20210;-51
2021/12/05 06:54:31;;;;;;;11.30;1.95;;;;;;;;;;5017928;28;20636;-50
2021/12/05 06:56:57;;;;;;;2.37;1.60;;;;;;;;;;5017978;28;20172;-50
2021/12/05 06:59:22;;;;;;;9.50;1.77;;;;;;;;;;5017679;28;20891;-50
2021/12/05 07:01:48;;;;;;;3.43;1.87;;;;;;;;;;5017127;28;20466;-50
2021/12/05 07:04:43;;;;;;;4.63;2.03;;;;;;;;;;5017686;28;20418;-51
2021/12/05 07:07:05;;;;;;;3.30;1.85;;;;;;;;;;5017884;28;20481;-51
2021/12/05 07:09:32;;;;;;;5.25;1.80;;;;;;;;;;5017233;28;20195;-49
2021/12/05 07:14:50;;;;;;;4.88;1.88;;;;;;;;;;5018256;28;20207;-51
2021/12/05 07:20:12;;;;;;;4.50;1.48;;;;;;;;;;5021499;28;20214;-48
2021/12/05 07:22:51;;;;;;;6.55;1.65;;;;;;;;;;5021591;28;20628;-49
2021/12/05 07:25:40;;;;;;;6.40;2.13;;;;;;;;;;5021768;28;20235;-51
2021/12/05 07:41:54;;;;;;;6.10;2.25;;;;;;;;;;5020509;28;20247;-51
2021/12/05 07:44:20;;;;;;;2.83;1.85;;;;;;;;;;5020828;28;20230;-50
2021/12/05 07:46:47;;;;;;;4.20;1.90;;;;;;;;;;5020560;28;20172;-51
2021/12/05 07:49:14;;;;;;;2.70;1.83;;;;;;;;;;5020846;28;20255;-50
2021/12/05 07:51:41;;;;;;;3.58;2.20;;;;;;;;;;5020743;28;20215;-49
2021/12/05 07:54:17;;;;;;;4.80;1.80;;;;;;;;;;5021332;28;20247;-51
2021/12/05 07:56:59;;;;;;;6.28;2.00;;;;;;;;;;5020166;28;20187;-51
2021/12/05 08:16:03;;;;;;;5.90;2.50;;;;;;;;;;5020608;28;20226;-52
2021/12/05 08:18:29;;;;;;;8.68;2.15;;;;;;;;;;5020141;28;20191;-52
2021/12/05 08:20:56;;;;;;;2.75;2.00;;;;;;;;;;5019476;28;20203;-49
2021/12/05 08:23:23;;;;;;;4.60;2.17;;;;;;;;;;5016106;28;20175;-49
2021/12/05 08:25:56;;;;;;;2.22;2.03;;;;;;;;;;5014572;28;20168;-48
2021/12/05 08:28:45;;;;;;;2.35;1.58;;;;;;;;;;5014915;28;20763;-48
2021/12/05 08:31:31;;;;;;;8.20;2.15;;;;;;;;;;5013876;28;20218;-49
2021/12/05 08:36:53;;;;;;;2.17;1.95;;;;;;;;;;5014888;28;20176;-48
2021/12/05 09:26:25;;;;;;;2.75;1.70;;;;;;;;;;5012967;28;20202;-49
2021/12/05 09:40:07;;;;;;;4.53;1.55;;;;;;;;;;5011713;28;20543;-49
2021/12/05 10:07:15;;;;;;;4.07;2.63;;;;;;;;;;5091278;28;20231;-48
2021/12/05 10:14:59;;;;;;;2.88;1.83;;;;;;;;;;5088786;28;20459;-48
2021/12/05 10:17:46;;;;;;;4.50;2.35;;;;;;;;;;5088864;28;20161;-49
2021/12/05 10:26:04;;;;;;;4.13;1.92;;;;;;;;;;5088628;28;20159;-49
2021/12/05 10:34:56;;;;;;;4.45;2.40;;;;;;;;;;5088449;28;20259;-50
2021/12/05 10:37:14;;;;;;;2.08;1.90;;;;;;;;;;5088058;28;20248;-50
2021/12/05 10:39:40;;;;;;;1.90;1.80;;;;;;;;;;5087977;28;20165;-49
2021/12/05 10:42:37;;;;;;;5.70;1.97;;;;;;;;;;5087397;28;20523;-48
2021/12/05 10:45:05;;;;;;;1.92;1.83;;;;;;;;;;5088253;28;20435;-49
2021/12/05 10:47:41;;;;;;;2.53;1.80;;;;;;;;;;5088289;28;20586;-51
2021/12/05 10:50:26;;;;;;;3.28;2.30;;;;;;;;;;5087780;28;20165;-49
2021/12/05 10:53:12;;;;;;;3.10;1.83;;;;;;;;;;5088073;28;20172;-49
2021/12/05 10:55:38;;;;;;;1.83;1.63;;;;;;;;;;5047998;28;20463;-49
2021/12/05 10:58:05;;;;;;;2.07;1.37;;;;;;;;;;5074593;28;20919;-49
2021/12/05 11:00:31;;;;;;;1.67;1.57;;;;;;;;;;5074185;28;20510;-49
2021/12/05 11:03:14;;;;;;;2.23;2.03;;;;;;;;;;5074621;28;20447;-48
2021/12/05 11:05:41;;;;;;;2.17;1.98;;;;;;;;;;5074532;28;20405;-49
2021/12/05 11:08:27;;;;;;;2.00;1.90;;;;;;;;;;5074629;28;20185;-49
2021/12/05 11:11:05;;;;;;;1.60;1.50;;;;;;;;;;5073893;28;20422;-49
2021/12/05 11:13:31;;;;;;;6.43;1.73;;;;;;;;;;5074117;28;20993;-49
2021/12/05 11:15:57;;;;;;;1.98;1.77;;;;;;;;;;5074395;28;20860;-49
2021/12/05 11:18:45;;;;;;;2.80;1.77;;;;;;;;;;5074222;28;20162;-49
2021/12/05 11:21:24;;;;;;;1.90;1.67;;;;;;;;;;5087165;28;20443;-50
2021/12/05 11:24:09;;;;;;;4.30;1.80;;;;;;;;;;5094631;28;20447;-49
2021/12/05 11:26:36;;;;;;;1.80;1.70;;;;;;;;;;5094097;28;20391;-49
2021/12/05 11:29:02;;;;;;;2.73;1.80;;;;;;;;;;5094761;28;20400;-48
2021/12/05 11:31:29;;;;;;;2.60;1.98;;;;;;;;;;5093902;28;20420;-48
2021/12/05 11:33:56;;;;;;;2.40;1.60;;;;;;;;;;5093859;28;20668;-48
2021/12/05 11:36:26;;;;;;;4.37;2.30;;;;;;;;;;5094330;28;20875;-49
2021/12/05 11:38:52;;;;;;;1.70;1.60;;;;;;;;;;5094288;28;20441;-51
2021/12/05 11:41:20;;;;;;;7.17;2.50;;;;;;;;;;5091343;28;20464;-48
2021/12/05 11:43:53;;;;;;;3.60;2.20;;;;;;;;;;5084594;28;20797;-48
2021/12/05 11:46:22;;;;;;;2.00;1.60;;;;;;;;;;5094082;28;20462;-48
2021/12/05 11:48:57;;;;;;;1.80;1.70;;;;;;;;;;5093791;28;20401;-48
2021/12/05 11:51:34;;;;;;;3.00;1.77;;;;;;;;;;5093586;28;20783;-49
2021/12/05 11:54:09;;;;;;;2.45;1.52;;;;;;;;;;5093899;28;20459;-49
2021/12/05 11:56:35;;;;;;;1.90;1.80;;;;;;;;;;5093568;28;20533;-49
2021/12/05 11:59:05;;;;;;;2.40;2.20;;;;;;;;;;5093819;28;20415;-49
2021/12/05 12:01:37;;;;;;;4.03;1.70;;;;;;;;;;5093237;28;20421;-49
2021/12/05 12:04:03;;;;;;;1.60;1.50;;;;;;;;;;5093687;28;20400;-49
2021/12/05 12:06:29;;;;;;;2.03;1.93;;;;;;;;;;5092761;28;20410;-49
2021/12/05 12:08:56;;;;;;;1.60;1.50;;;;;;;;;;5093468;28;20405;-49
2021/12/05 12:11:22;;;;;;;5.73;1.60;;;;;;;;;;5093039;28;20419;-48
2021/12/05 12:13:50;;;;;;;2.03;1.83;;;;;;;;;;5093285;28;20455;-49
2021/12/05 12:16:16;;;;;;;2.67;1.97;;;;;;;;;;5093189;28;20403;-49
2021/12/05 12:18:45;;;;;;;2.08;1.60;;;;;;;;;;5093356;28;20896;-49
2021/12/05 12:21:16;;;;;;;1.87;1.77;;;;;;;;;;5092868;28;20229;-49
2021/12/05 12:23:43;;;;;;;1.90;1.70;;;;;;;;;;5093136;28;20900;-50
2021/12/05 12:26:10;;;;;;;3.10;2.53;;;;;;;;;;5093112;28;20485;-48
2021/12/05 12:28:37;;;;;;;1.67;1.57;;;;;;;;;;5093158;28;20400;-49
2021/12/05 12:31:12;;;;;;;3.53;1.80;;;;;;;;;;5092785;28;20924;-49
2021/12/05 12:33:42;;;;;;;2.20;2.00;;;;;;;;;;5093090;28;20444;-48
2021/12/05 12:36:08;;;;;;;2.17;1.90;;;;;;;;;;5092934;28;20810;-49
2021/12/05 12:38:36;;;;;;;1.67;1.57;;;;;;;;;;5092914;28;20821;-49
2021/12/05 12:41:04;;;;;;;3.43;2.30;;;;;;;;;;5092585;28;20463;-49
2021/12/05 12:43:49;;;;;;;1.80;1.70;;;;;;;;;;5092921;28;20473;-49
2021/12/05 12:46:32;;;;;;;2.00;1.90;;;;;;;;;;5092875;28;20401;-48
2021/12/05 12:49:18;;;;;;;2.77;2.57;;;;;;;;;;5092952;28;20184;-49
2021/12/05 12:51:44;;;;;;;4.50;2.03;;;;;;;;;;5088348;28;20522;-50
2021/12/05 12:54:17;;;;;;;3.30;2.33;;;;;;;;;;5092732;28;20543;-49
2021/12/05 12:56:58;;;;;;;2.03;1.93;;;;;;;;;;5092606;28;20889;-49
2021/12/05 12:59:28;;;;;;;3.70;1.97;;;;;;;;;;5092820;28;20377;-49
2021/12/05 13:05:40;;;;;;;1.90;1.70;;;;;;;;;;5092916;28;20422;-48
2021/12/05 13:10:23;;;;;;;1.50;1.40;;;;;;;;;;5092209;28;20412;-49
2021/12/05 13:12:51;;;;;;;2.60;1.70;;;;;;;;;;5092675;28;20431;-49
2021/12/05 13:15:29;;;;;;;1.67;1.57;;;;;;;;;;5092280;28;20393;-50
2021/12/05 13:17:55;;;;;;;2.07;1.80;;;;;;;;;;5092016;28;20391;-50
2021/12/05 13:20:24;;;;;;;1.73;1.63;;;;;;;;;;5091899;28;20945;-49
2021/12/05 13:23:07;;;;;;;2.60;1.50;;;;;;;;;;5092296;28;20393;-51
2021/12/05 13:25:44;;;;;;;4.20;1.50;;;;;;;;;;5092176;28;20397;-49
2021/12/05 13:28:29;;;;;;;1.60;1.50;;;;;;;;;;5092199;28;20796;-49
2021/12/05 13:30:55;;;;;;;1.63;1.53;;;;;;;;;;5091675;28;20423;-50
2021/12/05 13:33:23;;;;;;;2.03;1.70;;;;;;;;;;5092026;28;20847;-49
2021/12/05 13:35:49;;;;;;;2.17;1.93;;;;;;;;;;5092186;28;20424;-49
2021/12/05 13:38:32;;;;;;;1.80;1.40;;;;;;;;;;5091958;28;20405;-51
2021/12/05 13:41:10;;;;;;;1.90;1.70;;;;;;;;;;5091538;28;20492;-49
2021/12/05 13:43:36;;;;;;;1.93;1.73;;;;;;;;;;5091942;28;20418;-48
2021/12/05 13:46:22;;;;;;;1.47;1.37;;;;;;;;;;5092042;28;20417;-49
2021/12/05 13:48:48;;;;;;;1.93;1.70;;;;;;;;;;5092144;28;20488;-49
2021/12/05 13:51:22;;;;;;;1.80;1.63;;;;;;;;;;5091562;28;20462;-50
2021/12/05 13:53:51;;;;;;;2.60;1.57;;;;;;;;;;5091844;28;20449;-50
2021/12/05 13:56:23;;;;;;;4.00;1.70;;;;;;;;;;5091879;28;20399;-49
2021/12/05 13:58:51;;;;;;;2.13;1.90;;;;;;;;;;5092057;28;20409;-49
2021/12/05 14:01:26;;;;;;;3.13;1.80;;;;;;;;;;5091593;28;20509;-49
2021/12/05 14:04:10;;;;;;;1.90;1.80;;;;;;;;;;5091785;28;20412;-50
2021/12/05 14:06:43;;;;;;;1.90;1.60;;;;;;;;;;5091812;28;20891;-49
2021/12/05 14:09:11;;;;;;;2.30;1.70;;;;;;;;;;5091755;28;20430;-49
2021/12/05 14:11:46;;;;;;;1.63;1.53;;;;;;;;;;5091879;28;20474;-49
2021/12/05 14:14:13;;;;;;;8.20;2.17;;;;;;;;;;5091640;28;20449;-49
2021/12/05 14:16:40;;;;;;;3.17;2.53;;;;;;;;;;5091610;28;20909;-49
2021/12/05 14:19:08;;;;;;;2.40;2.17;;;;;;;;;;5091768;28;20396;-49
2021/12/05 14:21:38;;;;;;;2.10;1.63;;;;;;;;;;5092193;28;20408;-52
2021/12/05 14:24:04;;;;;;;2.33;1.80;;;;;;;;;;5092944;28;20768;-51
2021/12/05 14:26:36;;;;;;;2.50;1.70;;;;;;;;;;5092318;28;20406;-52
2021/12/05 14:29:06;;;;;;;2.53;2.33;;;;;;;;;;5093329;28;20741;-52
2021/12/05 14:31:35;;;;;;;1.90;1.70;;;;;;;;;;5095292;28;20496;-52
2021/12/05 14:34:01;;;;;;;2.43;1.60;;;;;;;;;;5095843;28;20853;-52
2021/12/05 14:36:48;;;;;;;5.67;1.67;;;;;;;;;;5095790;28;20489;-53
2021/12/05 14:39:22;;;;;;;1.87;1.67;;;;;;;;;;5095506;28;20409;-53
2021/12/05 14:41:50;;;;;;;2.03;1.47;;;;;;;;;;5095275;28;20494;-52
2021/12/05 14:44:18;;;;;;;2.77;1.83;;;;;;;;;;5095566;28;20428;-52
2021/12/05 14:46:47;;;;;;;6.73;1.60;;;;;;;;;;5094090;28;20411;-52
2021/12/05 14:49:13;;;;;;;2.10;1.70;;;;;;;;;;5095606;28;20408;-51
2021/12/05 14:51:40;;;;;;;1.80;1.70;;;;;;;;;;5095442;28;20429;-50
2021/12/05 14:54:07;;;;;;;1.43;1.33;;;;;;;;;;5096441;28;20457;-52
2021/12/05 14:56:35;;;;;;;1.70;1.60;;;;;;;;;;5096022;28;20397;-52
2021/12/05 14:59:11;;;;;;;2.10;1.73;;;;;;;;;;5096655;28;20401;-51
2021/12/05 15:01:39;;;;;;;2.00;1.50;;;;;;;;;;5096088;28;20419;-51
2021/12/05 15:04:06;;;;;;;1.60;1.43;;;;;;;;;;5096839;28;20408;-51
2021/12/05 15:06:39;;;;;;;2.37;1.60;;;;;;;;;;5096475;28;20410;-51
2021/12/05 15:09:06;;;;;;;9.07;2.00;;;;;;;;;;5096738;28;20395;-50
2021/12/05 15:11:33;;;;;;;1.70;1.60;;;;;;;;;;5096564;28;20450;-50
2021/12/05 15:14:08;;;;;;;3.27;1.57;;;;;;;;;;5096800;28;20479;-50
2021/12/05 15:16:34;;;;;;;3.15;2.00;;;;;;;;;;5097358;28;20929;-50
2021/12/05 15:19:00;;;;;;;1.70;1.60;;;;;;;;;;5096976;28;20181;-51
2021/12/05 15:21:27;;;;;;;2.40;2.00;;;;;;;;;;5095506;28;20419;-50
2021/12/05 15:23:54;;;;;;;6.20;2.20;;;;;;;;;;5096388;28;20676;-52
2021/12/05 15:26:20;;;;;;;2.47;2.00;;;;;;;;;;5095884;28;20404;-50
2021/12/05 15:28:47;;;;;;;2.70;2.37;;;;;;;;;;5095978;28;20400;-53
2021/12/05 15:31:13;;;;;;;3.20;2.90;;;;;;;;;;5095982;28;20481;-52
2021/12/05 15:33:39;;;;;;;4.03;3.10;;;;;;;;;;5096563;28;20451;-51
2021/12/05 15:36:06;;;;;;;5.53;3.03;;;;;;;;;;5096742;28;20397;-51
2021/12/05 15:38:34;;;;;;;4.67;3.20;;;;;;;;;;5096933;28;20398;-52
2021/12/05 15:41:04;;;;;;;3.33;2.15;;;;;;;;;;5096574;28;20928;-52
2021/12/05 15:43:31;;;;;;;3.05;2.25;;;;;;;;;;5096198;28;20595;-51
2021/12/05 15:45:58;;;;;;;2.30;2.10;;;;;;;;;;5096178;28;20250;-51
2021/12/05 15:48:24;;;;;;;2.50;2.30;;;;;;;;;;5096168;28;20252;-50
2021/12/05 15:50:53;;;;;;;2.77;2.57;;;;;;;;;;5095760;28;20478;-51
2021/12/05 15:53:20;;;;;;;4.60;2.97;;;;;;;;;;5095498;28;20530;-51
2021/12/05 15:55:48;;;;;;;3.80;2.77;;;;;;;;;;5095071;28;20400;-52
2021/12/05 15:58:19;;;;;;;3.70;2.90;;;;;;;;;;5094859;28;20400;-53
2021/12/05 16:00:48;;;;;;;2.85;2.28;;;;;;;;;;5094761;28;20190;-52
2021/12/05 16:03:16;;;;;;;5.30;3.40;;;;;;;;;;5094800;28;20174;-52
2021/12/05 16:05:42;;;;;;;3.03;2.73;;;;;;;;;;5094357;28;20408;-53
2021/12/05 16:08:13;;;;;;;18.70;10.40;;;;;;;;;;5094668;28;20419;-53
2021/12/05 16:10:40;;;;;;;92.87;45.57;;;;;;;;;;5094530;28;20427;-51
2021/12/05 16:13:22;;;;;;;34.63;19.63;;;;;;;;;;5080593;28;20440;-52
2021/12/05 16:15:50;;;;;;;224.40;101.60;;;;;;;;;;5093349;28;20405;-53
2021/12/05 16:18:16;;;;;;;162.47;82.43;;;;;;;;;;5093971;28;20780;-51
2021/12/05 16:20:45;;;;;;;44.83;28.93;;;;;;;;;;5093501;28;20471;-52
2021/12/05 16:23:14;;;;;;;8.68;6.38;;;;;;;;;;5094042;28;20454;-52
2021/12/05 16:25:46;;;;;;;6.20;5.63;;;;;;;;;;5094205;28;20166;-51
2021/12/05 16:28:13;;;;;;;6.35;4.80;;;;;;;;;;5095516;28;20403;-51
2021/12/05 16:30:44;;;;;;;4.65;4.00;;;;;;;;;;5094284;28;20186;-53
2021/12/05 16:33:11;;;;;;;7.07;5.40;;;;;;;;;;5095023;28;20307;-53
2021/12/05 16:35:38;;;;;;;12.57;8.65;;;;;;;;;;5094584;28;20211;-50
2021/12/05 16:38:23;;;;;;;9.35;5.03;;;;;;;;;;5094371;28;20178;-49
2021/12/05 16:40:52;;;;;;;8.13;3.97;;;;;;;;;;5092474;28;20221;-49
2021/12/05 16:43:17;;;;;;;4.37;3.90;;;;;;;;;;5092865;28;20190;-49
2021/12/05 16:45:44;;;;;;;3.47;3.20;;;;;;;;;;5093092;28;20484;-49
2021/12/05 16:48:12;;;;;;;6.15;4.03;;;;;;;;;;5092764;28;20403;-50
2021/12/05 16:50:38;;;;;;;112.93;58.10;;;;;;;;;;5092229;28;20575;-49
2021/12/05 16:53:04;;;;;;;7.10;4.23;;;;;;;;;;5092145;28;20404;-49
2021/12/05 16:55:30;;;;;;;13.15;7.28;;;;;;;;;;5092865;28;20424;-49
2021/12/05 16:58:20;;;;;;;12.07;7.38;;;;;;;;;;5092614;28;20170;-49
2021/12/05 17:00:50;;;;;;;7.32;5.35;;;;;;;;;;5091849;28;20586;-51
2021/12/05 17:03:19;;;;;;;6.53;4.53;;;;;;;;;;5092749;28;20545;-49
2021/12/05 17:05:47;;;;;;;4.30;3.90;;;;;;;;;;5090407;28;20968;-49
2021/12/05 17:08:16;;;;;;;4.53;4.13;;;;;;;;;;5091999;28;20403;-49
2021/12/05 17:10:46;;;;;;;9.35;5.88;;;;;;;;;;5092176;28;20880;-49
2021/12/05 17:13:12;;;;;;;6.60;6.00;;;;;;;;;;5093689;28;20193;-50
2021/12/05 17:15:43;;;;;;;30.20;14.83;;;;;;;;;;5093161;28;20401;-49
2021/12/05 17:18:21;;;;;;;30.23;13.37;;;;;;;;;;5092227;28;20394;-50
2021/12/05 17:20:50;;;;;;;14.70;8.17;;;;;;;;;;5091829;28;20427;-50
2021/12/05 17:23:24;;;;;;;12.02;6.80;;;;;;;;;;5092932;28;20401;-49
2021/12/05 17:25:52;;;;;;;7.30;5.60;;;;;;;;;;5092207;28;20188;-50
2021/12/05 17:28:38;;;;;;;8.10;5.45;;;;;;;;;;5091475;28;20468;-48
2021/12/05 17:31:06;;;;;;;4.88;4.25;;;;;;;;;;5091878;28;20561;-49
2021/12/05 17:33:36;;;;;;;9.20;4.68;;;;;;;;;;5091562;28;20613;-49
2021/12/05 17:36:32;;;;;;;4.65;3.80;;;;;;;;;;5091714;28;20154;-50
2021/12/05 17:39:05;;;;;;;7.15;4.07;;;;;;;;;;5085586;28;20261;-48
2021/12/05 17:41:31;;;;;;;9.82;5.07;;;;;;;;;;5091205;28;20216;-50
2021/12/05 17:44:00;;;;;;;4.50;4.15;;;;;;;;;;5091926;28;20205;-49
2021/12/05 17:46:27;;;;;;;8.75;4.50;;;;;;;;;;5094885;28;20549;-49
2021/12/05 17:48:53;;;;;;;8.50;4.72;;;;;;;;;;5092426;28;20178;-48
2021/12/05 17:51:20;;;;;;;6.45;5.03;;;;;;;;;;5091426;28;20260;-48
2021/12/05 17:53:49;;;;;;;6.10;4.80;;;;;;;;;;5091400;28;20241;-48
2021/12/05 17:56:31;;;;;;;6.20;5.32;;;;;;;;;;5091587;28;20166;-49
2021/12/05 17:59:13;;;;;;;5.60;4.80;;;;;;;;;;5091793;28;20164;-49
2021/12/05 18:04:26;;;;;;;9.35;5.85;;;;;;;;;;5091681;28;20185;-48
2021/12/05 18:06:52;;;;;;;6.70;6.07;;;;;;;;;;5097499;28;20204;-50
2021/12/05 18:09:18;;;;;;;6.70;5.80;;;;;;;;;;5097675;28;20411;-52
2021/12/05 18:11:44;;;;;;;7.93;5.80;;;;;;;;;;5097901;28;20189;-52
2021/12/05 18:14:11;;;;;;;8.40;6.40;;;;;;;;;;5098363;28;20455;-52
2021/12/05 18:16:37;;;;;;;6.35;5.50;;;;;;;;;;5096658;28;20482;-51
2021/12/05 18:19:05;;;;;;;7.10;6.13;;;;;;;;;;5084055;28;20299;-51
2021/12/05 18:21:31;;;;;;;8.15;5.50;;;;;;;;;;5098805;28;20874;-52
2021/12/05 18:23:57;;;;;;;8.27;6.85;;;;;;;;;;5099808;28;20530;-52
2021/12/05 18:26:27;;;;;;;10.18;6.10;;;;;;;;;;5098244;28;20172;-51
2021/12/05 18:28:53;;;;;;;7.20;5.93;;;;;;;;;;5099359;28;20170;-51
2021/12/05 18:31:22;;;;;;;7.68;6.05;;;;;;;;;;5098404;28;20212;-52
2021/12/05 18:33:50;;;;;;;6.72;5.90;;;;;;;;;;5099524;28;20239;-50
2021/12/05 18:36:16;;;;;;;6.88;5.90;;;;;;;;;;5098721;28;20180;-52
2021/12/05 18:38:42;;;;;;;8.20;6.70;;;;;;;;;;5098162;28;20685;-52
2021/12/05 18:41:11;;;;;;;12.73;7.18;;;;;;;;;;5098342;28;20551;-52
2021/12/05 18:43:39;;;;;;;8.23;7.32;;;;;;;;;;5099221;28;20181;-51
2021/12/05 18:46:10;;;;;;;13.40;7.15;;;;;;;;;;5101325;28;20219;-51
2021/12/05 18:48:36;;;;;;;8.88;6.60;;;;;;;;;;5098530;28;20173;-51
2021/12/05 18:51:04;;;;;;;7.30;6.60;;;;;;;;;;5098738;28;20201;-51
2021/12/05 18:53:30;;;;;;;7.68;6.05;;;;;;;;;;5098950;28;20204;-51
2021/12/05 18:55:57;;;;;;;6.72;6.10;;;;;;;;;;5080701;28;20205;-50
2021/12/05 18:58:25;;;;;;;13.60;7.93;;;;;;;;;;5097826;28;20185;-50
2021/12/05 19:06:29;;;;;;;8.82;5.70;;;;;;;;;;5074762;28;20273;-51
2021/12/05 19:11:44;;;;;;;6.63;5.13;;;;;;;;;;5076327;28;20731;-51
2021/12/05 19:14:13;;;;;;;5.95;4.72;;;;;;;;;;5098284;28;20680;-50
2021/12/05 19:16:39;;;;;;;7.32;5.65;;;;;;;;;;5100376;28;20245;-50
2021/12/05 19:19:08;;;;;;;12.77;9.15;;;;;;;;;;5083774;28;20226;-50
2021/12/05 19:21:34;;;;;;;15.88;10.48;;;;;;;;;;5100461;28;20255;-51
2021/12/05 19:24:01;;;;;;;15.15;11.35;;;;;;;;;;5082120;28;20169;-50
2021/12/05 19:26:27;;;;;;;24.23;16.42;;;;;;;;;;5101109;28;20548;-49
2021/12/05 19:28:53;;;;;;;17.92;11.35;;;;;;;;;;5097883;28;20173;-51
2021/12/05 19:31:19;;;;;;;10.32;9.20;;;;;;;;;;5093714;28;20193;-51
2021/12/05 19:33:45;;;;;;;7.10;6.40;;;;;;;;;;5094520;28;20259;-50
2021/12/05 19:36:15;;;;;;;8.75;7.30;;;;;;;;;;5094683;28;20193;-50
2021/12/05 19:38:44;;;;;;;8.15;6.75;;;;;;;;;;5094421;28;20158;-49
2021/12/05 19:41:11;;;;;;;6.60;6.00;;;;;;;;;;5093934;28;20194;-51
2021/12/05 19:43:38;;;;;;;27.38;18.52;;;;;;;;;;5094091;28;20927;-51
2021/12/05 19:46:06;;;;;;;26.67;17.45;;;;;;;;;;5094094;28;20197;-51
2021/12/05 19:48:32;;;;;;;16.67;12.65;;;;;;;;;;5094128;28;20660;-51
2021/12/05 19:50:59;;;;;;;34.50;23.02;;;;;;;;;;5094209;28;20189;-51
2021/12/05 19:53:25;;;;;;;16.52;13.05;;;;;;;;;;5094137;28;20216;-52
2021/12/05 19:55:51;;;;;;;11.10;9.20;;;;;;;;;;5093849;28;20174;-50
2021/12/05 19:58:17;;;;;;;9.15;7.50;;;;;;;;;;5094037;28;20249;-50
2021/12/05 20:00:43;;;;;;;7.30;6.60;;;;;;;;;;5093333;28;20674;-50
2021/12/05 20:03:10;;;;;;;8.48;7.07;;;;;;;;;;5093685;28;20729;-51
2021/12/05 20:05:37;;;;;;;7.45;6.28;;;;;;;;;;5094175;28;20173;-50
2021/12/05 20:08:04;;;;;;;7.97;6.40;;;;;;;;;;5093592;28;20252;-50